sensor_id;sensor_type;location;lat;lon;timestamp;P1;durP1;ratioP1;P2;durP2;ratioP2
57655;SDS011;43482;53.334;6.744;2022-11-15T00:00:02;8.45;;;5.82;;
57655;SDS011;43482;53.334;6.744;2022-11-15T00:02:28;11.60;;;6.70;;
57655;SDS011;43482;53.334;6.744;2022-11-15T00:04:54;12.40;;;8.10;;
57655;SDS011;43482;53.334;6.744;2022-11-15T00:07:19;13.02;;;7.28;;
57655;SDS011;43482;53.334;6.744;2022-11-15T00:09:45;9.20;;;6.95;;
57655;SDS011;43482;53.334;6.744;2022-11-15T00:12:10;10.15;;;6.50;;
57655;SDS011;43482;53.334;6.744;2022-11-15T00:14:35;11.23;;;8.73;;
57655;SDS011;43482;53.334;6.744;2022-11-15T00:17:01;11.18;;;8.35;;
57655;SDS011;43482;53.334;6.744;2022-11-15T00:19:26;12.90;;;7.70;;
57655;SDS011;43482;53.334;6.744;2022-11-15T00:21:52;18.63;;;8.18;;
57655;SDS011;43482;53.334;6.744;2022-11-15T00:24:17;17.35;;;10.50;;
57655;SDS011;43482;53.334;6.744;2022-11-15T00:26:42;13.98;;;8.05;;
57655;SDS011;43482;53.334;6.744;2022-11-15T00:29:08;11.50;;;7.10;;
57655;SDS011;43482;53.334;6.744;2022-11-15T00:31:33;10.43;;;7.28;;
57655;SDS011;43482;53.334;6.744;2022-11-15T00:33:58;9.98;;;6.70;;
57655;SDS011;43482;53.334;6.744;2022-11-15T00:36:24;15.77;;;8.80;;
57655;SDS011;43482;53.334;6.744;2022-11-15T00:38:49;12.40;;;8.43;;
57655;SDS011;43482;53.334;6.744;2022-11-15T00:41:14;13.35;;;8.70;;
57655;SDS011;43482;53.334;6.744;2022-11-15T00:43:39;13.25;;;7.03;;
57655;SDS011;43482;53.334;6.744;2022-11-15T00:46:08;8.23;;;6.13;;
57655;SDS011;43482;53.334;6.744;2022-11-15T00:48:34;9.18;;;6.50;;
57655;SDS011;43482;53.334;6.744;2022-11-15T00:51:00;15.10;;;8.23;;
57655;SDS011;43482;53.334;6.744;2022-11-15T00:53:25;17.52;;;6.70;;
57655;SDS011;43482;53.334;6.744;2022-11-15T00:55:50;13.30;;;8.32;;
57655;SDS011;43482;53.334;6.744;2022-11-15T00:58:16;15.60;;;9.25;;
57655;SDS011;43482;53.334;6.744;2022-11-15T01:00:41;16.98;;;8.85;;
57655;SDS011;43482;53.334;6.744;2022-11-15T01:03:07;14.35;;;8.18;;
57655;SDS011;43482;53.334;6.744;2022-11-15T01:05:32;16.95;;;9.27;;
57655;SDS011;43482;53.334;6.744;2022-11-15T01:07:57;18.98;;;9.18;;
57655;SDS011;43482;53.334;6.744;2022-11-15T01:10:23;11.57;;;9.23;;
57655;SDS011;43482;53.334;6.744;2022-11-15T01:12:49;10.75;;;7.50;;
57655;SDS011;43482;53.334;6.744;2022-11-15T01:15:15;12.20;;;9.52;;
57655;SDS011;43482;53.334;6.744;2022-11-15T01:17:40;17.88;;;8.90;;
57655;SDS011;43482;53.334;6.744;2022-11-15T01:20:06;12.48;;;7.85;;
57655;SDS011;43482;53.334;6.744;2022-11-15T01:22:32;13.80;;;10.10;;
57655;SDS011;43482;53.334;6.744;2022-11-15T01:24:57;14.55;;;7.95;;
57655;SDS011;43482;53.334;6.744;2022-11-15T01:27:23;14.75;;;8.27;;
57655;SDS011;43482;53.334;6.744;2022-11-15T01:29:48;15.45;;;9.85;;
57655;SDS011;43482;53.334;6.744;2022-11-15T01:32:13;9.88;;;7.90;;
57655;SDS011;43482;53.334;6.744;2022-11-15T01:34:39;11.48;;;7.68;;
57655;SDS011;43482;53.334;6.744;2022-11-15T01:37:04;19.25;;;9.57;;
57655;SDS011;43482;53.334;6.744;2022-11-15T01:39:30;10.57;;;7.95;;
57655;SDS011;43482;53.334;6.744;2022-11-15T01:41:55;9.80;;;7.78;;
57655;SDS011;43482;53.334;6.744;2022-11-15T01:46:58;12.65;;;8.55;;
57655;SDS011;43482;53.334;6.744;2022-11-15T01:49:27;13.63;;;7.50;;
57655;SDS011;43482;53.334;6.744;2022-11-15T01:51:55;13.48;;;9.07;;
57655;SDS011;43482;53.334;6.744;2022-11-15T01:54:22;8.18;;;6.72;;
57655;SDS011;43482;53.334;6.744;2022-11-15T01:56:51;11.27;;;9.23;;
57655;SDS011;43482;53.334;6.744;2022-11-15T01:59:21;8.60;;;7.72;;
57655;SDS011;43482;53.334;6.744;2022-11-15T02:01:47;15.68;;;9.10;;
57655;SDS011;43482;53.334;6.744;2022-11-15T02:04:17;10.88;;;8.65;;
57655;SDS011;43482;53.334;6.744;2022-11-15T02:06:46;10.70;;;8.65;;
57655;SDS011;43482;53.334;6.744;2022-11-15T02:09:13;13.27;;;7.68;;
57655;SDS011;43482;53.334;6.744;2022-11-15T02:11:38;12.05;;;8.55;;
57655;SDS011;43482;53.334;6.744;2022-11-15T02:14:04;10.63;;;7.72;;
57655;SDS011;43482;53.334;6.744;2022-11-15T02:16:35;11.23;;;8.52;;
57655;SDS011;43482;53.334;6.744;2022-11-15T02:24:44;12.30;;;7.53;;
57655;SDS011;43482;53.334;6.744;2022-11-15T02:38:08;7.95;;;5.63;;
57655;SDS011;43482;53.334;6.744;2022-11-15T02:40:55;9.23;;;7.05;;
57655;SDS011;43482;53.334;6.744;2022-11-15T02:43:26;9.75;;;6.22;;
57655;SDS011;43482;53.334;6.744;2022-11-15T02:46:15;8.02;;;5.88;;
57655;SDS011;43482;53.334;6.744;2022-11-15T02:49:09;16.23;;;7.93;;
57655;SDS011;43482;53.334;6.744;2022-11-15T02:51:36;6.90;;;6.07;;
57655;SDS011;43482;53.334;6.744;2022-11-15T02:54:01;16.30;;;6.90;;
57655;SDS011;43482;53.334;6.744;2022-11-15T02:56:27;12.63;;;7.03;;
57655;SDS011;43482;53.334;6.744;2022-11-15T03:02:00;10.02;;;6.32;;
57655;SDS011;43482;53.334;6.744;2022-11-15T03:05:12;14.48;;;7.57;;
57655;SDS011;43482;53.334;6.744;2022-11-15T03:08:02;8.40;;;6.07;;
57655;SDS011;43482;53.334;6.744;2022-11-15T03:10:09;8.50;;;4.97;;
57655;SDS011;43482;53.334;6.744;2022-11-15T03:12:44;10.00;;;6.35;;
57655;SDS011;43482;53.334;6.744;2022-11-15T03:15:23;13.23;;;6.32;;
57655;SDS011;43482;53.334;6.744;2022-11-15T03:17:56;8.23;;;6.88;;
57655;SDS011;43482;53.334;6.744;2022-11-15T03:20:25;11.15;;;6.78;;
57655;SDS011;43482;53.334;6.744;2022-11-15T03:22:53;15.80;;;6.53;;
57655;SDS011;43482;53.334;6.744;2022-11-15T03:25:24;11.23;;;6.78;;
57655;SDS011;43482;53.334;6.744;2022-11-15T03:27:52;8.68;;;4.93;;
57655;SDS011;43482;53.334;6.744;2022-11-15T03:30:22;10.85;;;7.10;;
57655;SDS011;43482;53.334;6.744;2022-11-15T03:32:51;11.75;;;5.88;;
57655;SDS011;43482;53.334;6.744;2022-11-15T03:35:21;14.38;;;6.65;;
57655;SDS011;43482;53.334;6.744;2022-11-15T03:40:25;12.60;;;7.07;;
57655;SDS011;43482;53.334;6.744;2022-11-15T03:45:42;8.63;;;5.75;;
57655;SDS011;43482;53.334;6.744;2022-11-15T03:50:45;15.23;;;7.00;;
57655;SDS011;43482;53.334;6.744;2022-11-15T03:53:12;15.68;;;7.53;;
57655;SDS011;43482;53.334;6.744;2022-11-15T03:55:37;12.52;;;7.93;;
57655;SDS011;43482;53.334;6.744;2022-11-15T03:58:03;10.85;;;7.05;;
57655;SDS011;43482;53.334;6.744;2022-11-15T04:00:28;11.95;;;7.38;;
57655;SDS011;43482;53.334;6.744;2022-11-15T04:02:54;9.63;;;6.90;;
57655;SDS011;43482;53.334;6.744;2022-11-15T04:05:19;9.57;;;6.63;;
57655;SDS011;43482;53.334;6.744;2022-11-15T04:07:45;16.05;;;6.00;;
57655;SDS011;43482;53.334;6.744;2022-11-15T04:10:10;15.68;;;7.85;;
57655;SDS011;43482;53.334;6.744;2022-11-15T04:12:37;14.95;;;7.35;;
57655;SDS011;43482;53.334;6.744;2022-11-15T04:15:11;13.50;;;8.05;;
57655;SDS011;43482;53.334;6.744;2022-11-15T04:17:52;18.35;;;8.00;;
57655;SDS011;43482;53.334;6.744;2022-11-15T04:23:06;14.23;;;8.43;;
57655;SDS011;43482;53.334;6.744;2022-11-15T04:25:55;14.13;;;8.18;;
57655;SDS011;43482;53.334;6.744;2022-11-15T04:28:23;16.65;;;7.95;;
57655;SDS011;43482;53.334;6.744;2022-11-15T04:30:48;17.35;;;9.75;;
57655;SDS011;43482;53.334;6.744;2022-11-15T04:33:14;20.02;;;9.93;;
57655;SDS011;43482;53.334;6.744;2022-11-15T04:35:40;10.77;;;7.78;;
57655;SDS011;43482;53.334;6.744;2022-11-15T04:38:06;13.63;;;9.13;;
57655;SDS011;43482;53.334;6.744;2022-11-15T04:40:33;11.75;;;7.60;;
57655;SDS011;43482;53.334;6.744;2022-11-15T04:42:58;11.23;;;8.68;;
57655;SDS011;43482;53.334;6.744;2022-11-15T04:45:24;14.88;;;9.88;;
57655;SDS011;43482;53.334;6.744;2022-11-15T04:47:50;14.85;;;8.02;;
57655;SDS011;43482;53.334;6.744;2022-11-15T04:50:15;13.20;;;9.88;;
57655;SDS011;43482;53.334;6.744;2022-11-15T04:52:50;16.25;;;9.95;;
57655;SDS011;43482;53.334;6.744;2022-11-15T04:55:17;27.45;;;11.52;;
57655;SDS011;43482;53.334;6.744;2022-11-15T04:57:42;10.77;;;9.48;;
57655;SDS011;43482;53.334;6.744;2022-11-15T05:00:09;11.02;;;9.88;;
57655;SDS011;43482;53.334;6.744;2022-11-15T05:02:37;19.30;;;11.77;;
57655;SDS011;43482;53.334;6.744;2022-11-15T05:05:21;17.23;;;11.15;;
57655;SDS011;43482;53.334;6.744;2022-11-15T05:07:46;18.50;;;11.95;;
57655;SDS011;43482;53.334;6.744;2022-11-15T05:10:12;23.40;;;11.32;;
57655;SDS011;43482;53.334;6.744;2022-11-15T05:12:37;23.80;;;12.57;;
57655;SDS011;43482;53.334;6.744;2022-11-15T05:15:02;30.50;;;13.32;;
57655;SDS011;43482;53.334;6.744;2022-11-15T05:17:28;18.90;;;12.18;;
57655;SDS011;43482;53.334;6.744;2022-11-15T05:19:54;20.25;;;12.30;;
57655;SDS011;43482;53.334;6.744;2022-11-15T05:22:19;16.17;;;12.13;;
57655;SDS011;43482;53.334;6.744;2022-11-15T05:24:45;21.73;;;12.50;;
57655;SDS011;43482;53.334;6.744;2022-11-15T05:27:10;17.98;;;11.23;;
57655;SDS011;43482;53.334;6.744;2022-11-15T05:29:36;19.35;;;11.90;;
57655;SDS011;43482;53.334;6.744;2022-11-15T05:32:02;15.45;;;10.38;;
57655;SDS011;43482;53.334;6.744;2022-11-15T05:34:30;17.75;;;11.15;;
57655;SDS011;43482;53.334;6.744;2022-11-15T05:36:55;18.48;;;12.13;;
57655;SDS011;43482;53.334;6.744;2022-11-15T05:39:21;20.27;;;11.43;;
57655;SDS011;43482;53.334;6.744;2022-11-15T05:41:47;15.40;;;12.30;;
57655;SDS011;43482;53.334;6.744;2022-11-15T05:44:17;16.00;;;12.32;;
57655;SDS011;43482;53.334;6.744;2022-11-15T05:46:46;12.57;;;11.20;;
57655;SDS011;43482;53.334;6.744;2022-11-15T05:49:13;25.15;;;11.65;;
57655;SDS011;43482;53.334;6.744;2022-11-15T05:51:43;11.73;;;9.25;;
57655;SDS011;43482;53.334;6.744;2022-11-15T05:54:10;20.65;;;12.70;;
57655;SDS011;43482;53.334;6.744;2022-11-15T05:56:36;20.33;;;11.10;;
57655;SDS011;43482;53.334;6.744;2022-11-15T05:59:02;17.92;;;11.60;;
57655;SDS011;43482;53.334;6.744;2022-11-15T06:01:27;20.33;;;11.63;;
57655;SDS011;43482;53.334;6.744;2022-11-15T06:03:53;24.40;;;12.82;;
57655;SDS011;43482;53.334;6.744;2022-11-15T06:06:19;18.98;;;13.85;;
57655;SDS011;43482;53.334;6.744;2022-11-15T06:08:44;21.67;;;13.32;;
57655;SDS011;43482;53.334;6.744;2022-11-15T06:11:09;23.42;;;13.68;;
57655;SDS011;43482;53.334;6.744;2022-11-15T06:13:35;33.03;;;15.38;;
57655;SDS011;43482;53.334;6.744;2022-11-15T06:16:00;30.60;;;14.80;;
57655;SDS011;43482;53.334;6.744;2022-11-15T06:18:26;24.58;;;15.90;;
57655;SDS011;43482;53.334;6.744;2022-11-15T06:20:52;35.38;;;15.63;;
57655;SDS011;43482;53.334;6.744;2022-11-15T06:23:17;26.30;;;13.80;;
57655;SDS011;43482;53.334;6.744;2022-11-15T06:25:43;21.33;;;14.98;;
57655;SDS011;43482;53.334;6.744;2022-11-15T06:28:08;32.13;;;18.00;;
57655;SDS011;43482;53.334;6.744;2022-11-15T06:30:33;37.72;;;16.60;;
57655;SDS011;43482;53.334;6.744;2022-11-15T06:33:03;29.35;;;16.60;;
57655;SDS011;43482;53.334;6.744;2022-11-15T06:35:29;34.30;;;16.83;;
57655;SDS011;43482;53.334;6.744;2022-11-15T06:37:56;29.23;;;17.73;;
57655;SDS011;43482;53.334;6.744;2022-11-15T06:40:28;27.00;;;16.58;;
57655;SDS011;43482;53.334;6.744;2022-11-15T06:43:00;46.75;;;18.52;;
57655;SDS011;43482;53.334;6.744;2022-11-15T06:45:26;35.30;;;16.60;;
57655;SDS011;43482;53.334;6.744;2022-11-15T06:47:52;26.60;;;17.52;;
57655;SDS011;43482;53.334;6.744;2022-11-15T06:50:17;29.38;;;16.10;;
57655;SDS011;43482;53.334;6.744;2022-11-15T06:52:42;29.60;;;18.00;;
57655;SDS011;43482;53.334;6.744;2022-11-15T06:55:08;23.05;;;16.13;;
57655;SDS011;43482;53.334;6.744;2022-11-15T06:57:34;35.83;;;17.77;;
57655;SDS011;43482;53.334;6.744;2022-11-15T06:59:59;22.42;;;13.95;;
57655;SDS011;43482;53.334;6.744;2022-11-15T07:02:25;18.92;;;15.48;;
57655;SDS011;43482;53.334;6.744;2022-11-15T07:04:50;24.90;;;15.40;;
57655;SDS011;43482;53.334;6.744;2022-11-15T07:07:15;29.83;;;20.20;;
57655;SDS011;43482;53.334;6.744;2022-11-15T07:09:41;24.13;;;13.48;;
57655;SDS011;43482;53.334;6.744;2022-11-15T07:12:06;24.23;;;16.02;;
57655;SDS011;43482;53.334;6.744;2022-11-15T07:14:32;24.15;;;14.88;;
57655;SDS011;43482;53.334;6.744;2022-11-15T07:16:57;34.72;;;16.85;;
57655;SDS011;43482;53.334;6.744;2022-11-15T07:19:22;23.30;;;18.00;;
57655;SDS011;43482;53.334;6.744;2022-11-15T07:21:48;23.98;;;13.48;;
57655;SDS011;43482;53.334;6.744;2022-11-15T07:24:13;21.92;;;15.98;;
57655;SDS011;43482;53.334;6.744;2022-11-15T07:26:39;32.08;;;16.25;;
57655;SDS011;43482;53.334;6.744;2022-11-15T07:29:04;21.92;;;13.38;;
57655;SDS011;43482;53.334;6.744;2022-11-15T07:31:29;27.67;;;15.35;;
57655;SDS011;43482;53.334;6.744;2022-11-15T07:33:55;30.85;;;17.63;;
57655;SDS011;43482;53.334;6.744;2022-11-15T07:36:20;26.17;;;14.95;;
57655;SDS011;43482;53.334;6.744;2022-11-15T07:38:45;44.10;;;15.93;;
57655;SDS011;43482;53.334;6.744;2022-11-15T07:41:11;29.58;;;14.73;;
57655;SDS011;43482;53.334;6.744;2022-11-15T07:43:36;31.30;;;15.43;;
57655;SDS011;43482;53.334;6.744;2022-11-15T07:46:05;17.73;;;11.68;;
57655;SDS011;43482;53.334;6.744;2022-11-15T07:48:34;23.60;;;14.40;;
57655;SDS011;43482;53.334;6.744;2022-11-15T07:51:04;21.17;;;13.63;;
57655;SDS011;43482;53.334;6.744;2022-11-15T07:53:30;19.10;;;13.07;;
57655;SDS011;43482;53.334;6.744;2022-11-15T07:55:55;25.00;;;14.52;;
57655;SDS011;43482;53.334;6.744;2022-11-15T07:58:21;19.85;;;12.13;;
57655;SDS011;43482;53.334;6.744;2022-11-15T08:00:46;19.15;;;12.68;;
57655;SDS011;43482;53.334;6.744;2022-11-15T08:03:12;23.80;;;11.50;;
57655;SDS011;43482;53.334;6.744;2022-11-15T08:05:41;20.27;;;11.10;;
57655;SDS011;43482;53.334;6.744;2022-11-15T08:08:08;19.77;;;13.68;;
57655;SDS011;43482;53.334;6.744;2022-11-15T08:10:36;21.90;;;11.63;;
57655;SDS011;43482;53.334;6.744;2022-11-15T08:13:03;22.13;;;13.25;;
57655;SDS011;43482;53.334;6.744;2022-11-15T08:15:30;19.55;;;12.70;;
57655;SDS011;43482;53.334;6.744;2022-11-15T08:18:00;19.45;;;12.68;;
57655;SDS011;43482;53.334;6.744;2022-11-15T08:20:27;19.02;;;13.13;;
57655;SDS011;43482;53.334;6.744;2022-11-15T08:22:57;24.47;;;11.60;;
57655;SDS011;43482;53.334;6.744;2022-11-15T08:25:24;22.20;;;12.25;;
57655;SDS011;43482;53.334;6.744;2022-11-15T08:27:53;15.10;;;10.10;;
57655;SDS011;43482;53.334;6.744;2022-11-15T08:30:20;21.58;;;11.73;;
57655;SDS011;43482;53.334;6.744;2022-11-15T08:32:46;15.90;;;10.93;;
57655;SDS011;43482;53.334;6.744;2022-11-15T08:35:13;15.10;;;10.48;;
57655;SDS011;43482;53.334;6.744;2022-11-15T08:37:38;15.60;;;11.20;;
57655;SDS011;43482;53.334;6.744;2022-11-15T08:40:04;26.60;;;12.25;;
57655;SDS011;43482;53.334;6.744;2022-11-15T08:42:30;16.45;;;11.38;;
57655;SDS011;43482;53.334;6.744;2022-11-15T08:44:55;14.45;;;10.13;;
57655;SDS011;43482;53.334;6.744;2022-11-15T08:47:21;22.80;;;12.65;;
57655;SDS011;43482;53.334;6.744;2022-11-15T08:49:47;15.00;;;9.93;;
57655;SDS011;43482;53.334;6.744;2022-11-15T08:52:13;16.55;;;10.48;;
57655;SDS011;43482;53.334;6.744;2022-11-15T08:54:39;15.52;;;10.63;;
57655;SDS011;43482;53.334;6.744;2022-11-15T08:57:04;14.02;;;9.88;;
57655;SDS011;43482;53.334;6.744;2022-11-15T08:59:31;30.98;;;12.55;;
57655;SDS011;43482;53.334;6.744;2022-11-15T09:01:56;17.67;;;11.75;;
57655;SDS011;43482;53.334;6.744;2022-11-15T09:04:22;13.35;;;9.40;;
57655;SDS011;43482;53.334;6.744;2022-11-15T09:06:47;15.38;;;10.27;;
57655;SDS011;43482;53.334;6.744;2022-11-15T09:09:12;10.52;;;9.05;;
57655;SDS011;43482;53.334;6.744;2022-11-15T09:11:38;15.57;;;9.30;;
57655;SDS011;43482;53.334;6.744;2022-11-15T09:14:03;17.98;;;9.48;;
57655;SDS011;43482;53.334;6.744;2022-11-15T09:16:30;14.43;;;10.65;;
57655;SDS011;43482;53.334;6.744;2022-11-15T09:18:56;18.15;;;11.27;;
57655;SDS011;43482;53.334;6.744;2022-11-15T09:21:21;11.68;;;8.43;;
57655;SDS011;43482;53.334;6.744;2022-11-15T09:23:46;16.80;;;9.90;;
57655;SDS011;43482;53.334;6.744;2022-11-15T09:26:12;20.98;;;9.75;;
57655;SDS011;43482;53.334;6.744;2022-11-15T09:28:38;24.95;;;10.73;;
57655;SDS011;43482;53.334;6.744;2022-11-15T09:31:06;19.73;;;8.10;;
57655;SDS011;43482;53.334;6.744;2022-11-15T09:33:32;13.32;;;9.05;;
57655;SDS011;43482;53.334;6.744;2022-11-15T09:36:02;14.60;;;8.90;;
57655;SDS011;43482;53.334;6.744;2022-11-15T09:38:29;17.08;;;10.10;;
57655;SDS011;43482;53.334;6.744;2022-11-15T09:49:24;11.10;;;8.18;;
57655;SDS011;43482;53.334;6.744;2022-11-15T09:51:51;10.57;;;9.32;;
57655;SDS011;43482;53.334;6.744;2022-11-15T09:54:38;13.05;;;7.35;;
57655;SDS011;43482;53.334;6.744;2022-11-15T09:57:11;11.07;;;8.38;;
57655;SDS011;43482;53.334;6.744;2022-11-15T10:05:11;14.23;;;8.13;;
57655;SDS011;43482;53.334;6.744;2022-11-15T10:11:00;11.43;;;7.05;;
57655;SDS011;43482;53.334;6.744;2022-11-15T10:13:28;11.07;;;7.95;;
57655;SDS011;43482;53.334;6.744;2022-11-15T10:16:13;9.52;;;8.15;;
57655;SDS011;43482;53.334;6.744;2022-11-15T10:18:54;15.45;;;9.07;;
57655;SDS011;43482;53.334;6.744;2022-11-15T10:21:37;13.25;;;8.35;;
57655;SDS011;43482;53.334;6.744;2022-11-15T10:24:19;11.75;;;8.55;;
57655;SDS011;43482;53.334;6.744;2022-11-15T10:26:49;16.33;;;9.02;;
57655;SDS011;43482;53.334;6.744;2022-11-15T10:29:20;12.05;;;9.07;;
57655;SDS011;43482;53.334;6.744;2022-11-15T10:31:46;13.57;;;8.27;;
57655;SDS011;43482;53.334;6.744;2022-11-15T10:34:14;11.43;;;8.25;;
57655;SDS011;43482;53.334;6.744;2022-11-15T10:36:43;9.82;;;7.28;;
57655;SDS011;43482;53.334;6.744;2022-11-15T10:39:11;12.07;;;7.22;;
57655;SDS011;43482;53.334;6.744;2022-11-15T10:41:39;11.82;;;7.63;;
57655;SDS011;43482;53.334;6.744;2022-11-15T10:46:32;15.70;;;9.13;;
57655;SDS011;43482;53.334;6.744;2022-11-15T10:49:15;10.27;;;8.25;;
57655;SDS011;43482;53.334;6.744;2022-11-15T10:54:23;14.00;;;9.60;;
57655;SDS011;43482;53.334;6.744;2022-11-15T10:56:53;16.23;;;9.70;;
57655;SDS011;43482;53.334;6.744;2022-11-15T11:01:54;14.18;;;7.13;;
57655;SDS011;43482;53.334;6.744;2022-11-15T11:04:20;18.25;;;9.35;;
57655;SDS011;43482;53.334;6.744;2022-11-15T11:12:04;25.65;;;14.80;;
57655;SDS011;43482;53.334;6.744;2022-11-15T11:14:35;19.55;;;13.68;;
57655;SDS011;43482;53.334;6.744;2022-11-15T11:25:38;16.90;;;12.50;;
57655;SDS011;43482;53.334;6.744;2022-11-15T11:36:21;20.13;;;15.43;;
57655;SDS011;43482;53.334;6.744;2022-11-15T11:39:18;15.10;;;12.40;;
57655;SDS011;43482;53.334;6.744;2022-11-15T11:44:34;21.95;;;13.68;;
57655;SDS011;43482;53.334;6.744;2022-11-15T11:47:31;20.63;;;14.50;;
57655;SDS011;43482;53.334;6.744;2022-11-15T11:50:11;23.13;;;15.20;;
57655;SDS011;43482;53.334;6.744;2022-11-15T11:52:52;18.80;;;16.88;;
57655;SDS011;43482;53.334;6.744;2022-11-15T11:55:37;17.73;;;14.88;;
57655;SDS011;43482;53.334;6.744;2022-11-15T11:58:25;27.27;;;19.75;;
57655;SDS011;43482;53.334;6.744;2022-11-15T12:03:49;22.65;;;18.63;;
57655;SDS011;43482;53.334;6.744;2022-11-15T12:14:12;15.73;;;14.07;;
57655;SDS011;43482;53.334;6.744;2022-11-15T12:16:47;16.92;;;13.80;;
57655;SDS011;43482;53.334;6.744;2022-11-15T12:19:12;13.63;;;12.25;;
57655;SDS011;43482;53.334;6.744;2022-11-15T12:24:22;14.63;;;11.52;;
57655;SDS011;43482;53.334;6.744;2022-11-15T12:26:54;11.35;;;10.25;;
57655;SDS011;43482;53.334;6.744;2022-11-15T12:32:21;11.77;;;9.25;;
57655;SDS011;43482;53.334;6.744;2022-11-15T12:34:51;9.85;;;8.32;;
57655;SDS011;43482;53.334;6.744;2022-11-15T12:45:38;7.07;;;5.15;;
57655;SDS011;43482;53.334;6.744;2022-11-15T13:01:09;5.20;;;4.55;;
57655;SDS011;43482;53.334;6.744;2022-11-15T13:03:35;4.63;;;2.78;;
57655;SDS011;43482;53.334;6.744;2022-11-15T13:06:34;3.50;;;2.53;;
57655;SDS011;43482;53.334;6.744;2022-11-15T13:09:49;2.50;;;2.30;;
57655;SDS011;43482;53.334;6.744;2022-11-15T13:11:59;4.50;;;3.78;;
57655;SDS011;43482;53.334;6.744;2022-11-15T13:14:40;6.68;;;4.10;;
57655;SDS011;43482;53.334;6.744;2022-11-15T13:20:27;3.55;;;2.85;;
57655;SDS011;43482;53.334;6.744;2022-11-15T13:22:40;3.63;;;3.03;;
57655;SDS011;43482;53.334;6.744;2022-11-15T13:27:53;4.05;;;2.28;;
57655;SDS011;43482;53.334;6.744;2022-11-15T13:30:24;2.28;;;2.08;;
57655;SDS011;43482;53.334;6.744;2022-11-15T13:32:52;5.32;;;3.03;;
57655;SDS011;43482;53.334;6.744;2022-11-15T13:37:48;2.80;;;2.13;;
57655;SDS011;43482;53.334;6.744;2022-11-15T13:42:45;4.05;;;2.45;;
57655;SDS011;43482;53.334;6.744;2022-11-15T13:45:13;4.57;;;2.10;;
57655;SDS011;43482;53.334;6.744;2022-11-15T13:47:41;4.78;;;2.55;;
57655;SDS011;43482;53.334;6.744;2022-11-15T13:50:09;23.90;;;9.93;;
57655;SDS011;43482;53.334;6.744;2022-11-15T13:52:36;3.93;;;2.57;;
57655;SDS011;43482;53.334;6.744;2022-11-15T13:55:09;1.80;;;1.50;;
57655;SDS011;43482;53.334;6.744;2022-11-15T14:02:55;7.32;;;2.53;;
57655;SDS011;43482;53.334;6.744;2022-11-15T14:05:22;3.15;;;2.80;;
57655;SDS011;43482;53.334;6.744;2022-11-15T14:08:32;6.75;;;3.83;;
57655;SDS011;43482;53.334;6.744;2022-11-15T14:10:48;5.95;;;4.00;;
57655;SDS011;43482;53.334;6.744;2022-11-15T14:13:32;5.22;;;2.92;;
57655;SDS011;43482;53.334;6.744;2022-11-15T14:16:14;3.08;;;2.85;;
57655;SDS011;43482;53.334;6.744;2022-11-15T14:18:49;5.43;;;4.50;;
57655;SDS011;43482;53.334;6.744;2022-11-15T14:21:17;8.00;;;5.00;;
57655;SDS011;43482;53.334;6.744;2022-11-15T14:23:43;4.63;;;4.15;;
57655;SDS011;43482;53.334;6.744;2022-11-15T14:26:26;5.22;;;3.75;;
57655;SDS011;43482;53.334;6.744;2022-11-15T14:31:52;4.95;;;3.20;;
57655;SDS011;43482;53.334;6.744;2022-11-15T14:34:19;4.75;;;3.42;;
57655;SDS011;43482;53.334;6.744;2022-11-15T14:36:47;3.83;;;3.53;;
57655;SDS011;43482;53.334;6.744;2022-11-15T14:39:12;3.13;;;2.90;;
57655;SDS011;43482;53.334;6.744;2022-11-15T14:41:38;5.28;;;2.80;;
57655;SDS011;43482;53.334;6.744;2022-11-15T14:44:03;5.72;;;2.85;;
57655;SDS011;43482;53.334;6.744;2022-11-15T14:46:30;10.02;;;3.03;;
57655;SDS011;43482;53.334;6.744;2022-11-15T14:48:56;3.95;;;2.40;;
57655;SDS011;43482;53.334;6.744;2022-11-15T14:51:21;1.90;;;1.73;;
57655;SDS011;43482;53.334;6.744;2022-11-15T14:53:47;7.25;;;2.60;;
57655;SDS011;43482;53.334;6.744;2022-11-15T14:56:13;3.60;;;3.25;;
57655;SDS011;43482;53.334;6.744;2022-11-15T14:58:39;4.60;;;2.67;;
57655;SDS011;43482;53.334;6.744;2022-11-15T15:01:12;3.60;;;2.55;;
57655;SDS011;43482;53.334;6.744;2022-11-15T15:03:49;3.40;;;2.38;;
57655;SDS011;43482;53.334;6.744;2022-11-15T15:06:17;5.07;;;3.60;;
57655;SDS011;43482;53.334;6.744;2022-11-15T15:08:43;3.10;;;2.38;;
57655;SDS011;43482;53.334;6.744;2022-11-15T15:11:16;3.88;;;3.13;;
57655;SDS011;43482;53.334;6.744;2022-11-15T15:13:46;3.40;;;3.10;;
57655;SDS011;43482;53.334;6.744;2022-11-15T15:16:11;3.55;;;3.20;;
57655;SDS011;43482;53.334;6.744;2022-11-15T15:18:36;3.83;;;3.47;;
57655;SDS011;43482;53.334;6.744;2022-11-15T15:21:02;3.30;;;2.35;;
57655;SDS011;43482;53.334;6.744;2022-11-15T15:23:32;5.55;;;3.83;;
57655;SDS011;43482;53.334;6.744;2022-11-15T15:25:58;3.25;;;2.95;;
57655;SDS011;43482;53.334;6.744;2022-11-15T15:28:23;4.78;;;3.25;;
57655;SDS011;43482;53.334;6.744;2022-11-15T15:30:49;2.95;;;2.75;;
57655;SDS011;43482;53.334;6.744;2022-11-15T15:33:14;2.90;;;2.60;;
57655;SDS011;43482;53.334;6.744;2022-11-15T15:35:40;3.30;;;2.95;;
57655;SDS011;43482;53.334;6.744;2022-11-15T15:38:06;2.90;;;2.70;;
57655;SDS011;43482;53.334;6.744;2022-11-15T15:40:34;3.05;;;2.85;;
57655;SDS011;43482;53.334;6.744;2022-11-15T15:42:59;4.90;;;2.95;;
57655;SDS011;43482;53.334;6.744;2022-11-15T15:45:25;3.70;;;3.03;;
57655;SDS011;43482;53.334;6.744;2022-11-15T15:47:52;4.13;;;3.83;;
57655;SDS011;43482;53.334;6.744;2022-11-15T15:52:51;3.55;;;3.25;;
57655;SDS011;43482;53.334;6.744;2022-11-15T15:55:17;4.45;;;4.07;;
57655;SDS011;43482;53.334;6.744;2022-11-15T15:57:43;4.38;;;4.00;;
57655;SDS011;43482;53.334;6.744;2022-11-15T16:00:09;4.35;;;4.05;;
57655;SDS011;43482;53.334;6.744;2022-11-15T16:02:35;4.72;;;4.43;;
57655;SDS011;43482;53.334;6.744;2022-11-15T16:05:00;5.55;;;5.15;;
57655;SDS011;43482;53.334;6.744;2022-11-15T16:07:26;5.03;;;4.72;;
57655;SDS011;43482;53.334;6.744;2022-11-15T16:09:53;4.90;;;4.53;;
57655;SDS011;43482;53.334;6.744;2022-11-15T16:12:25;6.43;;;5.75;;
57655;SDS011;43482;53.334;6.744;2022-11-15T16:14:51;6.22;;;5.82;;
57655;SDS011;43482;53.334;6.744;2022-11-15T16:17:18;5.45;;;4.95;;
57655;SDS011;43482;53.334;6.744;2022-11-15T16:19:45;5.25;;;4.85;;
57655;SDS011;43482;53.334;6.744;2022-11-15T16:22:10;5.40;;;4.90;;
57655;SDS011;43482;53.334;6.744;2022-11-15T16:24:36;5.63;;;4.75;;
57655;SDS011;43482;53.334;6.744;2022-11-15T16:27:01;3.88;;;3.22;;
57655;SDS011;43482;53.334;6.744;2022-11-15T16:29:27;3.97;;;3.35;;
57655;SDS011;43482;53.334;6.744;2022-11-15T16:31:53;4.13;;;3.83;;
57655;SDS011;43482;53.334;6.744;2022-11-15T16:34:18;3.78;;;3.45;;
57655;SDS011;43482;53.334;6.744;2022-11-15T16:36:43;5.63;;;4.07;;
57655;SDS011;43482;53.334;6.744;2022-11-15T16:39:12;3.35;;;3.05;;
57655;SDS011;43482;53.334;6.744;2022-11-15T16:41:38;4.22;;;3.90;;
57655;SDS011;43482;53.334;6.744;2022-11-15T16:44:04;3.58;;;3.28;;
57655;SDS011;43482;53.334;6.744;2022-11-15T16:46:29;7.80;;;4.05;;
57655;SDS011;43482;53.334;6.744;2022-11-15T16:48:55;4.13;;;3.78;;
57655;SDS011;43482;53.334;6.744;2022-11-15T16:51:20;4.00;;;3.20;;
57655;SDS011;43482;53.334;6.744;2022-11-15T16:53:46;7.95;;;4.07;;
57655;SDS011;43482;53.334;6.744;2022-11-15T16:56:27;11.93;;;3.10;;
57655;SDS011;43482;53.334;6.744;2022-11-15T16:58:54;2.80;;;2.60;;
57655;SDS011;43482;53.334;6.744;2022-11-15T17:01:32;3.08;;;2.78;;